AirNav   Everest Fuels
 
 1687 users online  

67CL Davis Airport
Colusa, California, USA

GOING TO COLUSA?


FAA INFORMATION EFFECTIVE 04 NOVEMBER 2021

Location

FAA Identifier: 67CL
Lat/Long: 39-12-03.6050N 122-02-54.9040W
39-12.060083N 122-02.915067W
39.2010014,-122.0485844
(estimated)
Elevation: 45 ft. / 14 m (estimated)
Variation: 16E (1985)
From city: 2 miles SW of COLUSA, CA
Time zone: UTC -8 (UTC -7 during Daylight Saving Time)
Zip code: 95932

Airport Operations

Airport use: Private use. Permission required prior to landing
Activation date: 08/1980
Control tower: no
ARTCC: OAKLAND CENTER
FSS: RANCHO MURIETA FLIGHT SERVICE STATION
Attendance: CONTINUOUS
Wind indicator: yes
Segmented circle: no

Nearby radio navigation aids

VOR radial/distance  VOR name  Freq  Var
ILAr335/7.9WILLIAMS VORTAC114.4018E
MYVr270/23.0MARYSVILLE VOR/DME110.8016E

Airport Services

Parking: hangars
Airframe service: MAJOR
Powerplant service: MAJOR

Runway Information

Runway N/S

Dimensions: 2000 x 75 ft. / 610 x 23 m
400' GRADED OVRN NORTH END OF RWY N/S.
Surface: gravel
RUNWAY N  RUNWAY S
Traffic pattern: leftleft
Obstructions: fencefence, 2 ft. from runway
FENCE 2'-3' FROM GRADED AREA.

Airport Ownership and Management from official FAA records

Ownership: Privately-owned
Owner: JOHN W. DAVIS
PO BOX 932
COLUSA, CA 95932
Phone (530) 458-4300
Manager: DENNIS W. FOLEY
PO BOX 932
COLUSA, CA 95932
Phone (530) 458-4300
CELL PHONE: 916-747-2453

Additional Remarks

PRIVATE & AG
FOR CD CTC OAKLAND ARTCC AT 510-745-3380.

Instrument Procedures

There are no published instrument procedures at 67CL.

Some nearby airports with instrument procedures:

O08 - Colusa County Airport (3 nm SE)
KWLW - Willows-Glenn County Airport (20 nm N)
KMYV - Yuba County Airport (23 nm E)
KOVE - Oroville Municipal Airport (26 nm NE)
KBAB - Beale Air Force Base (29 nm E)
 
Loc | Ops | Rwys | IFR | FBO | Links
Com | Nav | Svcs | Stats | Notes

Sonoma Jet Center
 
Area around 67CL (Davis Airport)
 
Road maps at: MapQuest Bing Google
 
Aerial photo
No photo
 
Sectional chart

 
Airport distance calculator
Flying to Davis Airport? Find the distance to fly.

From to 67CL

Sunrise and sunset
Times for 30-Nov-2021
 Local
(UTC-8)
 Zulu
(UTC)
Morning civil twilight06:3914:39
Sunrise07:0915:09
Sunset16:4500:45
Evening civil twilight17:1501:15

Current date and time
Zulu (UTC)  30-Nov-2021 18:48:43
Local (UTC-8)  30-Nov-2021 10:48:43
 
METAR
KMYV 
23nm E 
301753Z AUTO 00000KT 10SM CLR 13/08 A3019 RMK AO2 SLP228 T01330078 10133 20039 $
KOVE 
27nm NE 
301753Z AUTO 00000KT 10SM CLR 15/10 A3020 RMK AO2 SLP228 T01500100 10150 20072 50013
KBAB 
29nm E 
301758Z AUTO 00000KT 10SM CLR 13/08 A3018 RMK AO2 SLP223 T01300079 10130 20046 50012 $
KCIC 
36nm N 
301747Z VRB05KT 10SM BKN150 12/08 A3021
KSMF 
37nm SE 
301753Z 34004KT 2SM BR BCFG SCT004 BKN200 10/09 A3019 RMK AO2 SFC VIS 5 SLP224 VIS SW-N 1 T01000089 10100 20028 51016
KLHM 
37nm SE 
301835Z AUTO 00000KT 10SM CLR 13/08 A3018 RMK AO1
KDWA 
38nm S 
301835Z AUTO 03007KT 10SM CLR 14/10 A3019 RMK AO2
KEDU 
42nm S 
301835Z AUTO 02005KT 10SM CLR 13/13 A3019 RMK AO1
KMCC 
44nm SE 
301835Z AUTO 00000KT 8SM CLR 14/11 A3018 RMK AO2
TAF
KBAB 
29nm E 
301100Z 3011/0117 VRB06KT 9999 FEW250 QNH3012INS BECMG 3016/3017 32006KT 9999 FEW250 QNH3009INS BECMG 0101/0102 VRB06KT 9999 SKC QNH3009INS TX18/3022Z TN06/3013Z
NOTAMs
Click for the latest NOTAMs
NOTAMs are issued by the DoD/FAA and will open in a separate window not controlled by AirNav.

 

 
 

Would you like to see your business listed on this page?

 If your business provides an interesting product or service to pilots, flight crews, aircraft, or users of the Davis Airport, you should consider listing it here.  To start the listing process, click on the button below
 
Add a business
 

Other Pages about Davis Airport

Update a link
 
Copyright © AirNav, LLC. All rights reserved. Privacy Policy  Contact